createdAt,value
2023-01-17T00:01:20.087Z,92435.44
2023-01-17T00:04:41.402Z,92436.59
2023-01-17T00:08:04.862Z,92433.88
2023-01-17T00:11:10.256Z,92437.94
2023-01-17T00:14:13.385Z,92442.16
2023-01-17T00:17:16.669Z,92440.44
2023-01-17T00:20:41.305Z,92439.34
2023-01-17T00:24:04.420Z,92440.44
2023-01-17T00:27:16.186Z,92437.25
2023-01-17T00:30:21.469Z,92448.25
2023-01-17T00:33:25.226Z,92445.91
2023-01-17T00:36:27.898Z,92448.03
2023-01-17T00:39:31.376Z,92452.25
2023-01-17T00:42:34.606Z,92450.06
2023-01-17T00:45:58.444Z,92456.16
2023-01-17T00:49:27.401Z,92458.38
2023-01-17T00:52:49.331Z,92460.78
2023-01-17T00:56:11.051Z,92457.41
2023-01-17T00:59:33.357Z,92458.94
2023-01-17T01:02:58.418Z,92455.13
2023-01-17T01:06:24.449Z,92450.34
2023-01-17T01:09:46.094Z,92455.03
2023-01-17T01:13:07.729Z,92453.78
2023-01-17T01:16:33.002Z,92459.44
2023-01-17T01:19:56.186Z,92455.50
2023-01-17T01:23:22.755Z,92453.44
2023-01-17T01:26:45.112Z,92460.97
2023-01-17T01:30:07.016Z,92457.56
2023-01-17T01:33:21.605Z,92454.16
2023-01-17T01:36:25.306Z,92453.22
2023-01-17T01:39:31.336Z,92459.50
2023-01-17T01:42:35.020Z,92457.63
2023-01-17T01:45:39.391Z,92460.41
2023-01-17T01:48:53.577Z,92467.91
2023-01-17T01:52:00.984Z,92467.03
2023-01-17T01:55:23.503Z,92466.78
2023-01-17T01:58:30.563Z,92463.16
2023-01-17T02:01:34.443Z,92464.06
2023-01-17T02:04:37.915Z,92466.28
2023-01-17T02:07:50.109Z,92467.16
2023-01-17T02:10:54.661Z,92460.78
2023-01-17T02:13:58.224Z,92455.25
2023-01-17T02:17:08.272Z,92450.75
2023-01-17T02:20:21.655Z,92451.53
2023-01-17T02:24:01.093Z,92450.88
2023-01-17T02:27:29.048Z,92446.97
2023-01-17T02:30:43.205Z,92446.13
2023-01-17T02:34:01.656Z,92442.94
2023-01-17T02:37:26.144Z,92451.78
2023-01-17T02:40:44.298Z,92440.47
2023-01-17T02:43:51.571Z,92434.19
2023-01-17T02:46:57.733Z,92433.94
2023-01-17T02:50:15.041Z,92428.03
2023-01-17T02:53:33.280Z,92431.53
2023-01-17T02:56:55.072Z,92431.63
2023-01-17T03:00:32.145Z,92427.56
2023-01-17T03:03:52.508Z,92429.75
2023-01-17T03:07:04.290Z,92425.84
2023-01-17T03:10:08.334Z,92423.38
2023-01-17T03:13:11.534Z,92408.69
2023-01-17T03:16:26.412Z,92412.16
2023-01-17T03:19:32.521Z,92405.72
2023-01-17T03:22:35.646Z,92404.16
2023-01-17T03:25:38.939Z,92387.09
2023-01-17T03:28:42.112Z,92381.56
2023-01-17T03:31:45.114Z,92382.81
2023-01-17T03:34:50.659Z,92377.84
2023-01-17T03:37:53.747Z,92374.75
2023-01-17T03:41:05.841Z,92377.78
2023-01-17T03:44:08.967Z,92364.84
2023-01-17T03:47:15.191Z,92373.97
2023-01-17T03:50:18.306Z,92366.94
2023-01-17T03:53:23.928Z,92361.78
2023-01-17T03:56:29.244Z,92356.34
2023-01-17T03:59:34.537Z,92357.44
2023-01-17T04:02:37.930Z,92354.75
2023-01-17T04:05:41.096Z,92347.56
2023-01-17T04:08:44.357Z,92342.81
2023-01-17T04:11:51.489Z,92341.50
2023-01-17T04:14:54.602Z,92331.25
2023-01-17T04:17:58.471Z,92326.09
2023-01-17T04:21:01.783Z,92318.63
2023-01-17T04:24:05.127Z,92322.91
2023-01-17T04:27:08.296Z,92315.06
2023-01-17T04:30:12.402Z,92318.50
2023-01-17T04:33:15.647Z,92316.25
2023-01-17T04:36:18.875Z,92313.72
2023-01-17T04:39:21.942Z,92308.56
2023-01-17T04:42:25.039Z,92300.03
2023-01-17T04:45:28.356Z,92302.16
2023-01-17T04:48:34.361Z,92289.50
2023-01-17T04:51:37.726Z,92287.50
2023-01-17T04:54:42.827Z,92280.72
2023-01-17T04:57:46.029Z,92275.91
2023-01-17T05:00:51.573Z,92271.38
2023-01-17T05:03:54.847Z,92268.47
2023-01-17T05:06:58.024Z,92261.72
2023-01-17T05:10:01.556Z,92261.53
2023-01-17T05:13:05.257Z,92252.63
2023-01-17T05:16:09.577Z,92255.69
2023-01-17T05:19:15.660Z,92250.47
2023-01-17T05:22:21.657Z,92237.00
2023-01-17T05:25:26.420Z,92236.63
2023-01-17T05:28:29.551Z,92231.72
2023-01-17T05:31:32.671Z,92229.84
2023-01-17T05:34:35.903Z,92217.72
2023-01-17T05:37:39.104Z,92223.69
2023-01-17T05:40:44.456Z,92223.94
2023-01-17T05:43:47.618Z,92224.63
2023-01-17T05:46:52.895Z,92215.97
2023-01-17T05:49:55.969Z,92204.41
2023-01-17T05:53:03.567Z,92207.22
2023-01-17T05:56:06.917Z,92200.50
2023-01-17T05:59:13.213Z,92191.06
2023-01-17T06:02:19.963Z,92185.13
2023-01-17T06:05:24.216Z,92190.13
2023-01-17T06:08:27.474Z,92184.25
2023-01-17T06:11:32.696Z,92184.63
2023-01-17T06:14:36.352Z,92181.25
2023-01-17T06:17:39.636Z,92183.41
2023-01-17T06:20:43.379Z,92179.16
2023-01-17T06:23:46.543Z,92165.44
2023-01-17T06:26:49.669Z,92169.47
2023-01-17T06:29:53.287Z,92165.16
2023-01-17T06:32:56.658Z,92173.94
2023-01-17T06:36:00.105Z,92164.50
2023-01-17T06:39:08.453Z,92171.88
2023-01-17T06:42:15.240Z,92174.59
2023-01-17T06:45:24.101Z,92173.84
2023-01-17T06:48:27.528Z,92157.44
2023-01-17T06:51:30.693Z,92164.81
2023-01-17T06:54:33.819Z,92167.66
2023-01-17T06:57:37.150Z,92166.06
2023-01-17T07:00:41.107Z,92157.44
2023-01-17T07:03:45.085Z,92153.97
2023-01-17T07:06:48.256Z,92143.59
2023-01-17T07:09:51.402Z,92140.53
2023-01-17T07:13:00.578Z,92135.63
2023-01-17T07:16:04.710Z,92129.72
2023-01-17T07:19:10.471Z,92133.41
2023-01-17T07:22:15.824Z,92134.84
2023-01-17T07:25:22.802Z,92129.19
2023-01-17T07:28:34.904Z,92131.03
2023-01-17T07:31:39.442Z,92130.25
2023-01-17T07:34:42.529Z,92129.91
2023-01-17T07:37:52.138Z,92129.09
2023-01-17T07:41:00.179Z,92125.88
2023-01-17T07:44:03.338Z,92128.78
2023-01-17T07:47:08.893Z,92128.03
2023-01-17T07:50:15.700Z,92127.28
2023-01-17T07:53:18.835Z,92126.19
2023-01-17T07:56:24.535Z,92138.78
2023-01-17T07:59:27.691Z,92139.22
2023-01-17T08:02:37.849Z,92131.44
2023-01-17T08:05:42.488Z,92127.88
2023-01-17T08:08:45.944Z,92132.44
2023-01-17T08:11:49.091Z,92118.31
2023-01-17T08:14:52.438Z,92127.25
2023-01-17T08:17:55.747Z,92128.16
2023-01-17T08:21:03.897Z,92126.03
2023-01-17T08:24:12.911Z,92122.31
2023-01-17T08:27:20.426Z,92118.97
2023-01-17T08:30:27.748Z,92125.25
2023-01-17T08:33:35.153Z,92118.63
2023-01-17T08:36:46.235Z,92103.38
2023-01-17T08:39:53.282Z,92105.81
2023-01-17T08:42:58.403Z,92100.13
2023-01-17T08:46:02.513Z,92091.28
2023-01-17T08:49:05.771Z,92083.59
2023-01-17T08:52:08.975Z,92091.34
2023-01-17T08:55:12.253Z,92082.81
2023-01-17T08:58:15.547Z,92086.38
2023-01-17T09:01:18.848Z,92078.50
2023-01-17T09:04:22.188Z,92078.19
2023-01-17T09:07:27.581Z,92075.66
2023-01-17T09:10:30.744Z,92070.94
2023-01-17T09:13:34.209Z,92074.47
2023-01-17T09:16:38.242Z,92072.09
2023-01-17T09:19:47.757Z,92075.66
2023-01-17T09:22:52.260Z,92073.31
2023-01-17T09:26:00.087Z,92076.97
2023-01-17T09:29:03.255Z,92080.13
2023-01-17T09:32:06.625Z,92081.81
2023-01-17T09:35:11.902Z,92084.53
2023-01-17T09:38:15.234Z,92077.66
2023-01-17T09:41:31.818Z,92086.59
2023-01-17T09:44:53.752Z,92077.50
2023-01-17T09:47:57.381Z,92070.63
2023-01-17T09:51:27.080Z,92074.50
2023-01-17T09:54:36.604Z,92066.09
2023-01-17T09:58:07.634Z,92066.47
2023-01-17T10:01:24.781Z,92063.94
2023-01-17T10:04:56.270Z,92058.91
2023-01-17T10:08:14.777Z,92060.06
2023-01-17T10:11:32.122Z,92066.13
2023-01-17T10:14:55.277Z,92068.44
2023-01-17T10:18:29.531Z,92066.47
2023-01-17T10:22:16.387Z,92061.56
2023-01-17T10:25:43.617Z,92057.06
2023-01-17T10:28:53.638Z,92053.69
2023-01-17T10:32:00.927Z,92047.63
2023-01-17T10:35:17.535Z,92051.31
2023-01-17T10:38:24.528Z,92053.03
2023-01-17T10:41:35.147Z,92038.28
2023-01-17T10:45:01.525Z,92033.25
2023-01-17T10:48:23.729Z,92035.59
2023-01-17T10:51:44.405Z,92025.25
2023-01-17T10:55:13.515Z,92023.94
2023-01-17T10:58:16.758Z,92031.75
2023-01-17T11:01:21.925Z,92024.06
2023-01-17T11:04:37.281Z,92022.75
2023-01-17T11:07:40.939Z,92022.56
2023-01-17T11:10:45.676Z,92021.22
2023-01-17T11:13:51.340Z,92019.91
2023-01-17T11:17:04.287Z,92016.88
2023-01-17T11:20:09.359Z,92009.53
2023-01-17T11:23:27.712Z,92006.19
2023-01-17T11:26:33.758Z,92000.53
2023-01-17T11:29:41.550Z,91996.47
2023-01-17T11:32:54.759Z,91992.47
2023-01-17T11:35:57.943Z,91994.34
2023-01-17T11:39:21.906Z,91992.84
2023-01-17T11:42:39.043Z,91992.84
2023-01-17T11:45:43.044Z,91985.84
2023-01-17T11:48:51.643Z,91981.13
2023-01-17T11:51:56.834Z,91970.41
2023-01-17T11:55:00.331Z,91968.25
2023-01-17T11:58:03.693Z,91971.06
2023-01-17T12:01:45.097Z,91968.41
2023-01-17T12:05:15.870Z,91975.78
2023-01-17T12:08:26.647Z,91966.44
2023-01-17T12:12:22.445Z,91971.47
2023-01-17T12:15:46.967Z,91965.97
2023-01-17T12:18:54.294Z,91967.47
2023-01-17T12:22:28.762Z,91961.56
2023-01-17T12:25:55.212Z,91950.03
2023-01-17T12:29:12.942Z,91948.03
2023-01-17T12:32:18.879Z,91948.72
2023-01-17T12:35:39.277Z,91937.03
2023-01-17T12:38:42.577Z,91938.03
2023-01-17T12:41:57.036Z,91931.81
2023-01-17T12:45:11.511Z,91931.28
2023-01-17T12:48:19.946Z,91932.00
2023-01-17T12:51:29.691Z,91926.00
2023-01-17T12:54:38.929Z,91923.47
2023-01-17T12:57:48.653Z,91925.47
2023-01-17T13:01:03.488Z,91912.75
2023-01-17T13:04:30.704Z,91919.13
2023-01-17T13:08:20.489Z,91911.94
2023-01-17T13:12:06.661Z,91910.47
2023-01-17T13:15:24.095Z,91907.47
2023-01-17T13:18:30.346Z,91906.66
2023-01-17T13:21:35.963Z,91903.47
2023-01-17T13:24:52.425Z,91891.78
2023-01-17T13:28:04.616Z,91895.03
2023-01-17T13:31:25.821Z,91895.69
2023-01-17T13:34:50.219Z,91888.72
2023-01-17T13:37:59.322Z,91893.94
2023-01-17T13:41:39.503Z,91887.75
2023-01-17T13:44:42.666Z,91886.22
2023-01-17T13:47:46.462Z,91886.56
2023-01-17T13:51:04.472Z,91884.75
2023-01-17T13:54:08.495Z,91880.44
2023-01-17T13:57:29.475Z,91882.47
2023-01-17T14:00:45.365Z,91875.81
2023-01-17T14:03:54.591Z,91875.19
2023-01-17T14:07:01.916Z,91865.28
2023-01-17T14:10:25.704Z,91853.59
2023-01-17T14:13:36.362Z,91843.22
2023-01-17T14:16:40.417Z,91841.72
2023-01-17T14:19:45.820Z,91840.69
2023-01-17T14:23:00.265Z,91845.19
2023-01-17T14:26:19.839Z,91844.69
2023-01-17T14:29:54.715Z,91837.13
2023-01-17T14:33:05.303Z,91830.06
2023-01-17T14:36:22.739Z,91830.25
2023-01-17T14:39:25.981Z,91833.59
2023-01-17T14:42:31.531Z,91823.06
2023-01-17T14:45:36.997Z,91831.91
2023-01-17T14:48:42.047Z,91826.69
2023-01-17T14:51:58.466Z,91823.31
2023-01-17T14:55:16.062Z,91822.56
2023-01-17T14:58:21.742Z,91819.97
2023-01-17T15:01:25.206Z,91823.22
2023-01-17T15:04:30.985Z,91807.69
2023-01-17T15:07:34.078Z,91798.97
2023-01-17T15:10:38.413Z,91800.34
2023-01-17T15:13:45.596Z,91795.13
2023-01-17T15:16:49.088Z,91794.13
2023-01-17T15:19:58.587Z,91795.63
2023-01-17T15:23:02.150Z,91792.66
2023-01-17T15:26:08.198Z,91789.06
2023-01-17T15:29:21.075Z,91782.41
2023-01-17T15:32:28.661Z,91784.09
2023-01-17T15:35:31.999Z,91783.72
2023-01-17T15:38:39.418Z,91780.16
2023-01-17T15:41:43.510Z,91772.47
2023-01-17T15:44:48.961Z,91758.03
2023-01-17T15:47:52.956Z,91758.25
2023-01-17T15:50:59.780Z,91757.78
2023-01-17T15:54:35.162Z,91752.44
2023-01-17T15:57:39.584Z,91750.59
2023-01-17T16:00:44.977Z,91748.22
2023-01-17T16:03:55.890Z,91738.53
2023-01-17T16:07:11.025Z,91749.56
2023-01-17T16:10:25.576Z,91745.53
2023-01-17T16:13:33.229Z,91742.22
2023-01-17T16:16:36.399Z,91737.91
2023-01-17T16:19:39.642Z,91733.56
2023-01-17T16:22:44.584Z,91740.78
2023-01-17T16:25:49.201Z,91750.75
2023-01-17T16:28:52.811Z,91746.53
2023-01-17T16:31:55.951Z,91748.28
2023-01-17T16:34:59.373Z,91756.22
2023-01-17T16:38:22.267Z,91760.03
2023-01-17T16:41:25.992Z,91745.56
2023-01-17T16:44:30.599Z,91744.59
2023-01-17T16:47:33.722Z,91738.84
2023-01-17T16:50:41.025Z,91739.06
2023-01-17T16:53:44.422Z,91742.22
2023-01-17T16:56:47.758Z,91727.63
2023-01-17T16:59:51.337Z,91727.63
2023-01-17T17:02:55.003Z,91718.78
2023-01-17T17:06:00.466Z,91713.09
2023-01-17T17:09:03.671Z,91702.38
2023-01-17T17:12:07.422Z,91694.31
2023-01-17T17:15:11.926Z,91699.75
2023-01-17T17:18:17.225Z,91689.66
2023-01-17T17:21:20.730Z,91691.50
2023-01-17T17:24:24.659Z,91683.78
2023-01-17T17:27:28.413Z,91685.53
2023-01-17T17:30:32.218Z,91681.06
2023-01-17T17:33:35.929Z,91681.66
2023-01-17T17:36:39.709Z,91678.63
2023-01-17T17:39:43.196Z,91675.03
2023-01-17T17:42:46.318Z,91671.84
2023-01-17T17:45:49.989Z,91679.16
2023-01-17T17:48:53.153Z,91674.84
2023-01-17T17:51:56.347Z,91671.66
2023-01-17T17:54:59.639Z,91679.97
2023-01-17T17:58:03.052Z,91678.09
2023-01-17T18:01:07.649Z,91672.66
2023-01-17T18:04:12.990Z,91659.56
2023-01-17T18:07:16.183Z,91678.22
2023-01-17T18:10:19.444Z,91674.13
2023-01-17T18:13:23.132Z,91670.97
2023-01-17T18:16:31.756Z,91668.34
2023-01-17T18:19:34.884Z,91666.03
2023-01-17T18:22:37.925Z,91674.16
2023-01-17T18:25:43.721Z,91671.41
2023-01-17T18:28:47.198Z,91666.16
2023-01-17T18:31:52.022Z,91662.03
2023-01-17T18:34:55.232Z,91654.78
2023-01-17T18:37:59.606Z,91657.78
2023-01-17T18:41:07.894Z,91643.94
2023-01-17T18:44:11.541Z,91644.13
2023-01-17T18:47:14.664Z,91634.72
2023-01-17T18:50:17.957Z,91633.31
2023-01-17T18:53:21.081Z,91630.69
2023-01-17T18:56:24.546Z,91628.09
2023-01-17T18:59:27.791Z,91632.50
2023-01-17T19:02:30.878Z,91620.13
2023-01-17T19:05:36.973Z,91625.41
2023-01-17T19:08:40.767Z,91631.56
2023-01-17T19:11:45.597Z,91633.19
2023-01-17T19:14:48.663Z,91624.91
2023-01-17T19:17:51.866Z,91616.13
2023-01-17T19:20:55.372Z,91611.84
2023-01-17T19:23:59.381Z,91611.84
2023-01-17T19:27:03.481Z,91607.78
2023-01-17T19:30:06.631Z,91618.34
2023-01-17T19:33:09.719Z,91613.91
2023-01-17T19:36:16.843Z,91614.91
2023-01-17T19:39:20.915Z,91619.44
2023-01-17T19:42:23.778Z,91617.47
2023-01-17T19:45:26.988Z,91612.81
2023-01-17T19:48:31.406Z,91605.34
2023-01-17T19:51:35.146Z,91603.00
2023-01-17T19:54:38.307Z,91607.66
2023-01-17T19:57:42.066Z,91608.09
2023-01-17T20:00:46.629Z,91612.03
2023-01-17T20:03:50.588Z,91610.63
2023-01-17T20:06:54.235Z,91609.97
2023-01-17T20:09:58.141Z,91614.69
2023-01-17T20:13:01.186Z,91616.72
2023-01-17T20:16:06.153Z,91611.38
2023-01-17T20:19:09.372Z,91605.91
2023-01-17T20:22:12.514Z,91603.06
2023-01-17T20:25:15.651Z,91599.59
2023-01-17T20:28:18.924Z,91601.09
2023-01-17T20:31:25.401Z,91601.38
2023-01-17T20:34:28.866Z,91590.69
2023-01-17T20:37:32.119Z,91588.69
2023-01-17T20:40:35.264Z,91591.25
2023-01-17T20:43:38.685Z,91588.81
2023-01-17T20:46:42.217Z,91583.88
2023-01-17T20:49:45.269Z,91593.94
2023-01-17T20:52:51.121Z,91574.59
2023-01-17T20:55:57.865Z,91583.13
2023-01-17T20:59:06.820Z,91574.81
2023-01-17T21:02:13.240Z,91574.59
2023-01-17T21:05:17.043Z,91575.63
2023-01-17T21:08:20.153Z,91566.94
2023-01-17T21:11:26.029Z,91566.28
2023-01-17T21:14:32.342Z,91560.72
2023-01-17T21:17:36.669Z,91559.41
2023-01-17T21:20:40.059Z,91563.69
2023-01-17T21:23:43.637Z,91561.66
2023-01-17T21:26:47.571Z,91560.00
2023-01-17T21:29:50.316Z,91552.94
2023-01-17T21:32:53.371Z,91551.94
2023-01-17T21:35:56.653Z,91544.25
2023-01-17T21:39:04.917Z,91539.28
2023-01-17T21:42:08.154Z,91537.22
2023-01-17T21:45:11.764Z,91540.34
2023-01-17T21:48:15.475Z,91545.13
2023-01-17T21:51:20.198Z,91548.19
2023-01-17T21:54:46.922Z,91552.72
2023-01-17T21:58:08.361Z,91556.38
2023-01-17T22:01:18.964Z,91561.56
2023-01-17T22:04:22.447Z,91555.88
2023-01-17T22:07:27.667Z,91548.84
2023-01-17T22:10:31.178Z,91560.63
2023-01-17T22:13:35.511Z,91563.66
2023-01-17T22:16:38.622Z,91567.97
2023-01-17T22:19:42.406Z,91557.94
2023-01-17T22:22:47.564Z,91563.66
2023-01-17T22:25:51.384Z,91568.59
2023-01-17T22:28:55.492Z,91566.59
2023-01-17T22:31:58.552Z,91572.06
2023-01-17T22:35:01.722Z,91570.56
2023-01-17T22:38:05.056Z,91568.88
2023-01-17T22:41:10.885Z,91564.25
2023-01-17T22:44:14.071Z,91575.47
2023-01-17T22:47:17.249Z,91573.31
2023-01-17T22:50:20.503Z,91579.44
2023-01-17T22:53:23.641Z,91579.53
2023-01-17T22:56:33.011Z,91582.94
2023-01-17T22:59:36.381Z,91587.97
2023-01-17T23:02:39.960Z,91598.50
2023-01-17T23:05:47.337Z,91602.44
2023-01-17T23:08:53.135Z,91600.78
2023-01-17T23:11:57.003Z,91598.84
2023-01-17T23:15:18.742Z,91591.03
2023-01-17T23:18:40.353Z,91595.19
2023-01-17T23:22:01.952Z,91592.91
2023-01-17T23:25:13.329Z,91596.81
2023-01-17T23:28:21.371Z,91606.91
2023-01-17T23:31:25.090Z,91614.34
2023-01-17T23:34:28.335Z,91619.56
2023-01-17T23:37:51.382Z,91612.28
2023-01-17T23:41:18.444Z,91612.59
2023-01-17T23:44:23.779Z,91617.63
2023-01-17T23:47:27.082Z,91630.59
2023-01-17T23:50:30.249Z,91625.22
2023-01-17T23:53:33.531Z,91635.59
2023-01-17T23:56:36.736Z,91635.38
2023-01-17T23:59:39.830Z,91630.13
